Gbangbatok Airport


Codes: GFGK/GBK
Name: Gbangbatok Airport
City: Gbangbatok
Country: Sierra Leone
Elevation: 75 ft.
Wikipedia:

Photos at Gbangbatok Airport


   Photos courtesy of SpottingLog. You can add your own sightings and photos by signing up for a free trial today.



No photos found.

Weather at Gbangbatok Airport


Time (UTC)DescriptionTempratureWindCloud coverageVisibilityPressureHumidity
15-Apr-2024 18:00Broken Clouds36°C9 mph, SW68%10000m1007hPa42%
15-Apr-2024 21:00Scattered Clouds32°C7 mph, SW34%10000m1008hPa63%
16-Apr-2024 00:00Scattered Clouds28°C4 mph, S33%10000m1011hPa81%
16-Apr-2024 03:00Few Clouds27°C2 mph, W11%10000m1010hPa86%
16-Apr-2024 06:00Few Clouds26°C2 mph, NW14%10000m1011hPa87%
16-Apr-2024 09:00Scattered Clouds31°C2 mph, NW38%10000m1012hPa67%
16-Apr-2024 12:00Scattered Clouds37°C4 mph, SW45%10000m1010hPa45%
16-Apr-2024 15:00Light Rain33°C7 mph, SW91%10000m1008hPa55%
16-Apr-2024 18:00Light Rain32°C7 mph, SW86%10000m1007hPa59%
16-Apr-2024 21:00Light Rain28°C4 mph, SW24%10000m1009hPa80%
17-Apr-2024 00:00Scattered Clouds27°C4 mph, SW35%10000m1010hPa86%
17-Apr-2024 03:00Overcast Clouds26°C2 mph, W98%10000m1009hPa90%
17-Apr-2024 06:00Overcast Clouds27°C2 mph, W95%10000m1009hPa89%
17-Apr-2024 09:00Light Rain29°C2 mph, NW100%10000m1011hPa75%
17-Apr-2024 12:00Light Rain34°C2 mph, W98%10000m1011hPa52%
17-Apr-2024 15:00Light Rain32°C2 mph, SW100%10000m1009hPa58%
17-Apr-2024 18:00Moderate Rain28°C2 mph, SE100%7335m1010hPa77%
17-Apr-2024 21:00Light Rain27°C4 mph, S100%10000m1011hPa88%
18-Apr-2024 00:00Overcast Clouds26°C4 mph, SW100%10000m1010hPa87%
18-Apr-2024 03:00Overcast Clouds26°C4 mph, NW100%10000m1009hPa91%
18-Apr-2024 06:00Overcast Clouds26°C2 mph, NW100%10000m1009hPa93%
18-Apr-2024 09:00Overcast Clouds29°C2 mph, N100%10000m1012hPa77%
18-Apr-2024 12:00Overcast Clouds33°C4 mph, W98%10000m1011hPa54%
18-Apr-2024 15:00Overcast Clouds35°C7 mph, W88%10000m1008hPa47%
18-Apr-2024 18:00Overcast Clouds31°C9 mph, W90%10000m1007hPa61%
18-Apr-2024 21:00Broken Clouds27°C7 mph, SW70%10000m1009hPa82%
19-Apr-2024 00:00Broken Clouds27°C2 mph, SW74%10000m1011hPa86%
19-Apr-2024 03:00Broken Clouds26°C2 mph, W67%10000m1010hPa90%
19-Apr-2024 06:00Broken Clouds26°C2 mph, SW64%10000m1010hPa92%
19-Apr-2024 09:00Few Clouds30°C4 mph, W12%10000m1012hPa68%
19-Apr-2024 12:00Few Clouds35°C7 mph, W11%10000m1011hPa47%
19-Apr-2024 15:00Scattered Clouds35°C9 mph, SW44%10000m1008hPa47%
19-Apr-2024 18:00Broken Clouds31°C9 mph, SW64%10000m1008hPa58%
19-Apr-2024 21:00Overcast Clouds27°C7 mph, SW86%10000m1010hPa81%
20-Apr-2024 00:00Broken Clouds27°C4 mph, W78%10000m1010hPa85%
20-Apr-2024 03:00Scattered Clouds26°C2 mph, NW43%10000m1009hPa89%
20-Apr-2024 06:00Broken Clouds26°C2 mph, W70%10000m1010hPa88%
20-Apr-2024 09:00Broken Clouds30°C4 mph, W51%10000m1012hPa68%
20-Apr-2024 12:00Broken Clouds35°C7 mph, W69%10000m1011hPa46%
20-Apr-2024 15:00Overcast Clouds35°C11 mph, W86%10000m1007hPa44%